Nearby METAR Reports

 

KCMA - Camarillo, California, USA
Distance from station: WSW 4mi, 7km
Updated: Sun, 16-Dec-2018 11:55pm PST
Clear
Clear
 Wind from E
Wind: E 5 mph , 7 km/h
Temperature: 54°F , 12°C
Dew Point: 48°F , 9°C
Humidity: 82%
Barometer: 30.14 inHg , 1020.7 hPa
Clouds: Clear
Visibility: 10 miles , 16 km
2018/12/17 07:55 KCMA 170755Z AUTO 09004KT 10SM CLR 12/09 A3014 RMK AO2 SLP215 T01220089 402000050
KNTD - Point Mugu Nas, California, USA
Distance from station: SSW 9mi, 15km
Updated: Sun, 16-Dec-2018 11:57pm PST
Clear
Clear
 Wind from ENE
Wind: ENE 5 mph , 7 km/h
Temperature: 54°F , 12°C
Dew Point: 48°F , 9°C
Humidity: 82%
Barometer: 30.15 inHg , 1021 hPa
Clouds: Clear
Visibility: 10 miles , 16 km
2018/12/17 07:57 KNTD 170757Z AUTO 06004KT 10SM CLR 12/09 A3015 RMK AO2 SLP211 T01170094 401830044 $
 
KOXR - Oxnard, California, USA
Distance from station: WSW 10mi, 16km
Updated: Sun, 16-Dec-2018 11:51pm PST
Clear
Clear
 Wind from calm
Wind: Calm
Temperature: 55°F , 13°C
Dew Point: 52°F , 11°C
Humidity: 88%
Barometer: 30.14 inHg , 1020.7 hPa
Clouds: Clear
Visibility: 10 miles , 16 km
2018/12/17 07:51 KOXR 170751Z AUTO 00000KT 10SM CLR 13/11 A3014 RMK AO2 SLP206 T01280106 401940067
KVNY - Van Nuys, California, USA
Distance from station: E 31mi, 50km
Updated: Sun, 16-Dec-2018 11:51pm PST
Clear
Clear
 Wind from calm
Wind: Calm
Temperature: 55°F , 13°C
Dew Point: 46°F , 8°C
Humidity: 72%
Barometer: 30.14 inHg , 1020.7 hPa
Clouds: Clear
Visibility: 10 miles , 16 km
2018/12/17 07:51 KVNY 170751Z AUTO 00000KT 10SM CLR 13/08 A3014 RMK AO2 SLP199 T01280078 402500072
 
KWHP - La / Whiteman, California, USA
Distance from station: E 35mi, 56km
Updated: Sun, 16-Dec-2018 7:55pm PST
NOT Current
Clear
Clear
 Wind from calm
Wind: Calm
Temperature: 54°F , 12°C
Dew Point: 45°F , 7°C
Humidity: 72%
Barometer: 30.13 inHg , 1020.3 hPa
Clouds: Clear
Visibility: 10 miles , 16 km
2018/12/17 03:55 KWHP 170355Z 00000KT 10SM SKC 12/07 A3013
KSMO - Santa Monica, California, USA
Distance from station: ESE 36mi, 58km
Updated: Sun, 16-Dec-2018 11:51pm PST
Partly cloudy
Partly cloudy
 Wind from ENE
Wind: ENE 3 mph , 6 km/h
Temperature: 57°F , 14°C
Dew Point: 54°F , 12°C
Humidity: 88%
Barometer: 30.15 inHg , 1021 hPa
Clouds: Partly cloudy
Visibility: 10 miles , 16 km
Cloud details: Partly cloudy 1100 ft
2018/12/17 07:51 KSMO 170751Z AUTO 06003KT 10SM SCT011 14/12 A3015 RMK AO2 SLP208 T01440117 402110100
 
KBUR - Burbank, California, USA
Distance from station: E 38mi, 61km
Updated: Sun, 16-Dec-2018 11:53pm PST
Clear
Clear
 Wind from E
Wind: E 3 mph , 6 km/h
Temperature: 54°F , 12°C
Dew Point: 48°F , 9°C
Humidity: 82%
Barometer: 30.14 inHg , 1020.7 hPa
Clouds: Clear
Visibility: 10 miles , 16 km
2018/12/17 07:53 KBUR 170753Z 08003KT 10SM CLR 12/09 A3014 RMK AO2 SLP197 T01170094 402220067 $
KSDB - Sandberg, California, USA
Distance from station: NNE 40mi, 64km
Updated: Sun, 16-Dec-2018 11:53pm PST
Mostly cloudy
Mostly cloudy
 Wind from S
Wind: S 10 mph , 17 km/h
Temperature: 48°F , 9°C
Wind Chill: 44°F , 7°C
Dew Point: 28°F , -2°C
Humidity: 46%
Barometer: 30.16 inHg , 1021.3 hPa
Clouds: Mostly cloudy
Visibility: 10 miles , 16 km
Cloud details: Mostly cloudy 11000 ft
2018/12/17 07:53 KSDB 170753Z AUTO 18009KT 10SM BKN110 09/M02 A3016 RMK AO2 SLP182 T00941017 401720078
 
KLAX - Los Angeles, California, USA
Distance from station: ESE 42mi, 68km
Updated: Sun, 16-Dec-2018 11:53pm PST
Mostly cloudy
Mostly cloudy
 Wind from W
Wind: W 6 mph , 9 km/h
Temperature: 59°F , 15°C
Dew Point: 55°F , 13°C
Humidity: 88%
Barometer: 30.14 inHg , 1020.7 hPa
Clouds: Mostly cloudy
Visibility: 10 miles , 16 km
Cloud details: Few Clouds 1200 ft
Mostly cloudy 15000 ft
Mostly cloudy 20000 ft
2018/12/17 07:53 KLAX 170753Z 26005KT 10SM FEW012 BKN150 BKN200 15/13 A3014 RMK AO2 SLP206 T01500128 401940094
KCQT - Los Angeles, California, USA
Distance from station: ESE 45mi, 73km
Updated: Sun, 16-Dec-2018 11:47pm PST
Clear
Clear
 Wind from calm
Wind: Calm
Temperature: 55°F , 13°C
Dew Point: 54°F , 12°C
Humidity: 94%
Barometer: 30.15 inHg , 1021 hPa
Clouds: Clear
Visibility: 8 miles , 13 km
2018/12/17 07:47 KCQT 170747Z AUTO 00000KT 8SM CLR 13/12 A3015 RMK AO2 SLP208 T01330122 402170078
 
KHHR - Hawthorne, California, USA
Distance from station: ESE 45mi, 73km
Updated: Sun, 16-Dec-2018 11:53pm PST
Clear
Clear
 Wind from calm
Wind: Calm
Temperature: 59°F , 15°C
Dew Point: 55°F , 13°C
Humidity: 88%
Barometer: 30.15 inHg , 1021 hPa
Clouds: Clear
Visibility: 10 miles , 16 km
2018/12/17 07:53 KHHR 170753Z AUTO 00000KT 10SM CLR 15/13 A3015 RMK AO2 SLP208 T01500128 402060089
KSBA - Santa Barbara, California, USA
Distance from station: WNW 49mi, 79km
Updated: Sun, 16-Dec-2018 11:53pm PST
Clear
Clear
 Wind from WNW
Wind: WNW 3 mph , 6 km/h
Temperature: 50°F , 10°C
Dew Point: 48°F , 9°C
Humidity: 94%
Barometer: 30.15 inHg , 1021 hPa
Clouds: Clear
Visibility: 10 miles , 16 km
2018/12/17 07:53 KSBA 170753Z AUTO 29003KT 10SM CLR 10/09 A3015 RMK AO2 SLP209 T01000094 401830044